Time;durP1;ratioP1;P1;durP2;ratioP2;P2;SDS_P1;SDS_P2;PMS_P1;PMS_P2;Temp;Humidity;BMP_temperature;BMP_pressure;BME280_temperature;BME280_humidity;BME280_pressure;Samples;Min_cycle;Max_cycle;Signal;HPM_P1;HPM_P2
2023/06/25 00:01:31;;;;;;;4.50;3.20;;;23.50;88.40;;;;;;4115517;28;20122;-56
2023/06/25 00:03:34;;;;;;;4.72;3.10;;;23.50;88.20;;;;;;4113260;28;20054;-57
2023/06/25 00:05:36;;;;;;;4.10;3.22;;;23.50;88.20;;;;;;4115231;28;20142;-57
2023/06/25 00:07:39;;;;;;;4.45;3.38;;;23.50;88.10;;;;;;4115823;28;20054;-61
2023/06/25 00:09:52;;;;;;;4.70;3.40;;;23.50;88.20;;;;;;4115607;28;20117;-57
2023/06/25 00:11:54;;;;;;;3.53;3.22;;;23.50;88.10;;;;;;4114771;28;20126;-57
2023/06/25 00:13:57;;;;;;;3.53;3.10;;;23.50;88.10;;;;;;4114200;28;20050;-57
2023/06/25 00:16:00;;;;;;;6.40;3.35;;;23.40;88.10;;;;;;4098240;29;20078;-57
2023/06/25 00:18:02;;;;;;;3.97;2.70;;;23.50;88.20;;;;;;4115716;28;20082;-60
2023/06/25 00:20:05;;;;;;;3.92;2.97;;;23.40;88.30;;;;;;4115385;28;20051;-55
2023/06/25 00:22:08;;;;;;;7.03;3.42;;;23.40;88.50;;;;;;4113385;28;20137;-55
2023/06/25 00:24:10;;;;;;;5.68;3.33;;;23.40;88.70;;;;;;4117678;28;20049;-59
2023/06/25 00:26:12;;;;;;;4.68;3.15;;;23.40;88.40;;;;;;4118085;28;20058;-65
2023/06/25 00:28:14;;;;;;;4.72;2.90;;;23.30;88.50;;;;;;4117799;28;20075;-65
2023/06/25 00:30:18;;;;;;;5.38;3.20;;;23.40;88.50;;;;;;4116497;28;20453;-59
2023/06/25 00:32:24;;;;;;;5.15;3.15;;;23.30;88.30;;;;;;4114553;28;20113;-59
2023/06/25 00:34:26;;;;;;;4.30;3.10;;;23.30;88.50;;;;;;4115277;28;20130;-59
2023/06/25 00:36:36;;;;;;;5.18;3.53;;;23.30;88.90;;;;;;4115326;28;20416;-59
2023/06/25 00:38:39;;;;;;;3.63;3.20;;;23.30;88.70;;;;;;4115115;28;20061;-57
2023/06/25 00:40:41;;;;;;;5.30;3.05;;;23.20;88.80;;;;;;4115163;28;20449;-59
2023/06/25 00:42:44;;;;;;;3.45;2.88;;;23.30;88.80;;;;;;4114328;28;20126;-58
2023/06/25 00:44:46;;;;;;;3.22;2.90;;;23.20;88.80;;;;;;4114825;28;20047;-58
2023/06/25 00:46:49;;;;;;;5.45;3.65;;;23.20;88.70;;;;;;4114963;28;20483;-57
2023/06/25 00:48:52;;;;;;;3.78;2.92;;;23.20;88.80;;;;;;4114506;28;20043;-58
2023/06/25 00:51:00;;;;;;;7.90;3.20;;;23.30;89.00;;;;;;4114944;28;20051;-58
2023/06/25 00:53:03;;;;;;;7.50;3.58;;;23.20;89.20;;;;;;4114009;28;20043;-59
2023/06/25 00:55:08;;;;;;;5.03;3.10;;;23.20;89.30;;;;;;4115103;28;20105;-58
2023/06/25 00:57:11;;;;;;;9.55;3.45;;;23.20;89.70;;;;;;4115064;28;20046;-59
2023/06/25 00:59:13;;;;;;;8.02;3.10;;;23.10;89.80;;;;;;4114956;28;20129;-59
2023/06/25 01:01:26;;;;;;;4.30;3.33;;;23.00;89.70;;;;;;4114867;28;20054;-58
2023/06/25 01:03:36;;;;;;;3.72;3.10;;;23.10;89.80;;;;;;4116894;28;20049;-58
2023/06/25 01:05:44;;;;;;;4.72;3.33;;;23.00;90.10;;;;;;4117882;28;20075;-58
2023/06/25 01:07:48;;;;;;;5.80;3.28;;;23.00;90.00;;;;;;4117983;28;20138;-58
2023/06/25 01:09:50;;;;;;;4.40;3.33;;;23.00;89.90;;;;;;4117910;28;20060;-59
2023/06/25 01:12:00;;;;;;;4.85;3.35;;;23.00;89.90;;;;;;4116527;28;20074;-58
2023/06/25 01:14:03;;;;;;;3.88;3.17;;;23.00;90.20;;;;;;4100509;29;20074;-58
2023/06/25 01:16:06;;;;;;;7.10;3.20;;;23.00;90.10;;;;;;4117671;28;20093;-59
2023/06/25 01:18:09;;;;;;;3.92;3.28;;;22.90;90.10;;;;;;4117761;28;20410;-59
2023/06/25 01:20:13;;;;;;;4.97;3.65;;;22.90;90.10;;;;;;4117782;28;20049;-59
2023/06/25 01:22:17;;;;;;;4.38;3.22;;;22.90;90.20;;;;;;4116975;28;20053;-59
2023/06/25 01:24:23;;;;;;;5.80;3.13;;;22.90;90.20;;;;;;4117427;28;20411;-58
2023/06/25 01:26:26;;;;;;;7.97;3.90;;;22.90;90.30;;;;;;4117766;28;20054;-58
2023/06/25 01:28:28;;;;;;;4.95;3.40;;;22.80;90.30;;;;;;4117346;28;20142;-59
2023/06/25 01:30:31;;;;;;;4.43;3.60;;;22.80;90.30;;;;;;4117354;28;20057;-58
2023/06/25 01:32:33;;;;;;;6.63;3.30;;;22.80;90.40;;;;;;4116209;28;20071;-59
2023/06/25 01:34:35;;;;;;;5.35;3.10;;;22.80;90.60;;;;;;4117436;28;20089;-56
2023/06/25 01:36:40;;;;;;;7.13;3.70;;;22.80;90.60;;;;;;4117409;28;20051;-57
2023/06/25 01:38:42;;;;;;;;;;;22.70;90.60;;;;;;4118031;28;20138;-56
2023/06/25 01:40:46;;;;;;;4.35;3.15;;;22.70;90.80;;;;;;4117457;28;19953;-56
2023/06/25 01:42:48;;;;;;;5.80;3.40;;;22.60;90.80;;;;;;4116337;28;20055;-56
2023/06/25 01:44:50;;;;;;;4.43;3.10;;;22.60;90.90;;;;;;4117203;28;20051;-56
2023/06/25 01:46:53;;;;;;;4.35;3.40;;;22.60;90.90;;;;;;4117206;28;20490;-60
2023/06/25 01:48:55;;;;;;;6.53;3.40;;;22.60;91.00;;;;;;4117525;28;20050;-56
2023/06/25 01:50:57;;;;;;;5.85;3.85;;;22.60;90.90;;;;;;4117323;28;20529;-57
2023/06/25 01:52:59;;;;;;;3.45;3.15;;;22.60;90.90;;;;;;4116515;28;20075;-58
2023/06/25 01:55:01;;;;;;;4.07;3.22;;;22.50;90.90;;;;;;4117391;28;20147;-56
2023/06/25 01:57:06;;;;;;;4.57;3.22;;;22.50;91.10;;;;;;4117001;28;20043;-56
2023/06/25 01:59:08;;;;;;;6.50;3.20;;;22.50;91.10;;;;;;4117150;28;20046;-56
2023/06/25 02:01:10;;;;;;;15.90;3.75;;;22.50;91.00;;;;;;4116765;28;20047;-56
2023/06/25 02:03:12;;;;;;;6.55;3.50;;;22.50;91.00;;;;;;4116025;28;20477;-57
2023/06/25 02:05:14;;;;;;;5.60;2.85;;;22.50;91.00;;;;;;4115978;28;20051;-57
2023/06/25 02:07:17;;;;;;;7.15;3.55;;;22.40;91.10;;;;;;4116928;28;20049;-56
2023/06/25 02:09:19;;;;;;;5.82;3.28;;;22.40;91.10;;;;;;4116959;28;20050;-56
2023/06/25 02:11:21;;;;;;;4.28;3.17;;;22.30;91.00;;;;;;4116811;28;20086;-56
2023/06/25 02:13:24;;;;;;;2.90;2.60;;;22.30;91.10;;;;;;4115068;28;20051;-56
2023/06/25 02:15:26;;;;;;;5.55;3.25;;;22.30;91.10;;;;;;4116532;28;20047;-55
2023/06/25 02:17:28;;;;;;;3.33;2.75;;;22.30;91.10;;;;;;4116791;28;20141;-56
2023/06/25 02:19:30;;;;;;;4.38;3.28;;;22.30;91.30;;;;;;4116634;28;20064;-56
2023/06/25 02:21:32;;;;;;;5.07;3.38;;;22.30;91.20;;;;;;4116914;28;20424;-56
2023/06/25 02:23:34;;;;;;;6.13;3.88;;;22.30;91.20;;;;;;4115715;28;20461;-55
2023/06/25 02:25:36;;;;;;;6.63;3.35;;;22.30;91.10;;;;;;4116682;28;20050;-56
2023/06/25 02:27:39;;;;;;;4.38;3.35;;;22.20;91.10;;;;;;4116908;28;20047;-57
2023/06/25 02:29:42;;;;;;;4.07;2.95;;;22.20;91.20;;;;;;4116209;28;20070;-56
2023/06/25 02:31:44;;;;;;;5.57;3.30;;;22.20;91.10;;;;;;4116696;28;20046;-57
2023/06/25 02:33:47;;;;;;;4.22;3.35;;;22.20;91.20;;;;;;4115716;28;20472;-56
2023/06/25 02:35:49;;;;;;;3.30;2.78;;;22.10;91.20;;;;;;4115487;28;20508;-57
2023/06/25 02:37:51;;;;;;;6.32;3.55;;;22.10;91.30;;;;;;4116234;28;20126;-57
2023/06/25 02:39:53;;;;;;;4.85;3.08;;;22.10;91.20;;;;;;4116513;28;20046;-60
2023/06/25 02:41:55;;;;;;;5.30;3.30;;;22.10;91.20;;;;;;4115223;28;20073;-56
2023/06/25 02:43:57;;;;;;;5.35;3.40;;;22.10;91.30;;;;;;4114996;28;20430;-57
2023/06/25 02:46:01;;;;;;;4.97;3.13;;;22.00;91.30;;;;;;4115963;28;20058;-56
2023/06/25 02:48:03;;;;;;;4.03;3.15;;;22.00;91.40;;;;;;4116250;28;20417;-56
2023/06/25 02:50:06;;;;;;;5.55;3.10;;;22.00;91.30;;;;;;4116198;28;20047;-57
2023/06/25 02:52:08;;;;;;;5.13;3.35;;;22.00;91.30;;;;;;4116305;28;20051;-57
2023/06/25 02:54:10;;;;;;;8.68;3.33;;;21.90;91.30;;;;;;4115336;28;20089;-56
2023/06/25 02:56:12;;;;;;;6.50;3.58;;;22.00;91.40;;;;;;4115966;28;20505;-56
2023/06/25 02:58:14;;;;;;;3.80;2.85;;;22.00;91.40;;;;;;4115821;28;20057;-55
2023/06/25 03:00:17;;;;;;;5.45;3.47;;;22.00;91.40;;;;;;4116119;28;20129;-56
2023/06/25 03:02:20;;;;;;;5.65;3.50;;;22.00;91.40;;;;;;4115439;28;20061;-58
2023/06/25 03:04:22;;;;;;;4.50;3.15;;;22.00;91.30;;;;;;4114705;28;20464;-58
2023/06/25 03:06:24;;;;;;;4.97;3.40;;;22.00;91.30;;;;;;4115966;28;20043;-58
2023/06/25 03:08:27;;;;;;;5.70;3.63;;;22.00;91.60;;;;;;4115883;28;20137;-55
2023/06/25 03:10:33;;;;;;;6.35;3.40;;;21.90;91.60;;;;;;4116236;28;20503;-56
2023/06/25 03:12:35;;;;;;;3.67;2.85;;;21.90;92.00;;;;;;4115412;28;20046;-56
2023/06/25 03:14:37;;;;;;;3.55;3.00;;;21.80;91.80;;;;;;4115321;28;20074;-55
2023/06/25 03:16:39;;;;;;;4.90;2.72;;;21.80;91.70;;;;;;4115805;28;20046;-56
2023/06/25 03:18:43;;;;;;;4.22;2.97;;;21.80;91.80;;;;;;4115864;28;20072;-56
2023/06/25 03:20:45;;;;;;;11.63;3.53;;;21.80;91.80;;;;;;4116024;28;20046;-56
2023/06/25 03:22:47;;;;;;;5.78;3.33;;;21.80;91.90;;;;;;4114918;28;20061;-56
2023/06/25 03:24:50;;;;;;;3.42;2.70;;;21.70;92.30;;;;;;4115612;28;20416;-56
2023/06/25 03:26:52;;;;;;;6.32;3.13;;;21.60;92.50;;;;;;4116069;28;20138;-54
2023/06/25 03:28:55;;;;;;;5.35;3.10;;;21.50;92.70;;;;;;4115285;28;20081;-55
2023/06/25 03:30:57;;;;;;;5.28;2.70;;;21.50;92.90;;;;;;4115801;28;20046;-57
2023/06/25 03:33:00;;;;;;;6.45;3.42;;;21.50;92.80;;;;;;4114828;28;20572;-55
2023/06/25 03:35:04;;;;;;;4.25;3.60;;;21.50;92.30;;;;;;4115533;28;20047;-55
2023/06/25 03:37:06;;;;;;;3.73;3.00;;;21.60;92.30;;;;;;4115480;28;20046;-56
2023/06/25 03:39:08;;;;;;;3.72;2.67;;;21.50;92.70;;;;;;4115888;28;20058;-55
2023/06/25 03:41:10;;;;;;;4.30;3.17;;;21.50;92.80;;;;;;4115956;28;20497;-61
2023/06/25 03:43:12;;;;;;;5.25;3.28;;;21.50;92.90;;;;;;4114878;28;20481;-56
2023/06/25 03:45:16;;;;;;;3.80;3.05;;;21.50;92.50;;;;;;4115387;28;20497;-56
2023/06/25 03:47:18;;;;;;;5.30;3.20;;;21.50;92.80;;;;;;4115435;28;20102;-57
2023/06/25 03:49:20;;;;;;;4.35;3.10;;;21.50;92.80;;;;;;4115393;28;20087;-55
2023/06/25 03:51:23;;;;;;;4.20;3.25;;;21.40;93.10;;;;;;4115725;28;20073;-55
2023/06/25 03:53:26;;;;;;;6.68;3.42;;;21.40;92.90;;;;;;4114415;28;20051;-56
2023/06/25 03:55:28;;;;;;;3.45;3.00;;;21.40;92.80;;;;;;4115603;28;20125;-56
2023/06/25 03:57:30;;;;;;;5.43;3.38;;;21.50;93.30;;;;;;4115088;28;20086;-60
2023/06/25 03:59:33;;;;;;;6.10;3.50;;;21.40;93.00;;;;;;4115639;28;20046;-60
2023/06/25 04:01:35;;;;;;;2.63;2.42;;;21.40;93.10;;;;;;4115412;28;20046;-60
2023/06/25 04:03:37;;;;;;;5.90;3.35;;;21.40;93.10;;;;;;4114325;28;20117;-60
2023/06/25 04:05:41;;;;;;;4.45;3.35;;;21.40;93.00;;;;;;4115328;28;20050;-60
2023/06/25 04:07:45;;;;;;;3.88;3.22;;;21.40;92.80;;;;;;4098177;29;20054;-60
2023/06/25 04:09:47;;;;;;;4.28;3.00;;;21.50;92.70;;;;;;4115462;28;20138;-60
2023/06/25 04:11:49;;;;;;;3.72;3.10;;;21.40;93.30;;;;;;4114911;28;20053;-60
2023/06/25 04:13:51;;;;;;;4.43;3.28;;;21.50;92.80;;;;;;4114547;28;20358;-60
2023/06/25 04:15:53;;;;;;;4.32;3.22;;;21.50;92.70;;;;;;4115341;28;20539;-60
2023/06/25 04:17:55;;;;;;;4.07;3.08;;;21.50;92.70;;;;;;4115319;28;20057;-58
2023/06/25 04:19:57;;;;;;;4.07;2.92;;;21.50;92.80;;;;;;4115527;28;20061;-58
2023/06/25 04:22:00;;;;;;;4.55;3.33;;;21.50;92.70;;;;;;4115050;28;20279;-57
2023/06/25 04:24:04;;;;;;;4.25;3.17;;;21.50;92.70;;;;;;4113044;28;20047;-57
2023/06/25 04:26:06;;;;;;;6.15;3.22;;;21.50;92.50;;;;;;4114824;28;20047;-57
2023/06/25 04:28:14;;;;;;;5.03;3.20;;;21.60;92.40;;;;;;4115324;28;20417;-57
2023/06/25 04:30:16;;;;;;;4.25;3.17;;;21.60;92.50;;;;;;4115571;28;20042;-57
2023/06/25 04:32:18;;;;;;;5.10;3.28;;;21.60;92.40;;;;;;4115268;28;20066;-57
2023/06/25 04:34:20;;;;;;;7.55;3.63;;;21.60;92.40;;;;;;4114384;28;20055;-57
2023/06/25 04:36:22;;;;;;;5.75;3.83;;;21.60;92.20;;;;;;4114988;28;20047;-58
2023/06/25 04:38:24;;;;;;;6.35;3.40;;;21.70;92.10;;;;;;4118270;28;20055;-58
2023/06/25 04:40:28;;;;;;;5.15;3.60;;;21.60;92.10;;;;;;4117914;28;20172;-58
2023/06/25 04:42:30;;;;;;;6.93;3.40;;;21.60;92.10;;;;;;4118493;28;20097;-57
2023/06/25 04:44:32;;;;;;;4.15;3.35;;;21.70;92.20;;;;;;4117403;28;20073;-58
2023/06/25 04:46:34;;;;;;;5.35;3.70;;;21.70;92.10;;;;;;4117972;28;20055;-59
2023/06/25 04:48:37;;;;;;;5.88;3.60;;;21.60;92.00;;;;;;4118237;28;20050;-56
2023/06/25 04:50:39;;;;;;;5.28;3.28;;;21.60;92.10;;;;;;4118261;28;20047;-57
2023/06/25 04:52:41;;;;;;;4.05;2.80;;;21.60;92.40;;;;;;4117403;28;20408;-58
2023/06/25 04:54:43;;;;;;;6.47;3.03;;;21.60;92.10;;;;;;4117681;28;20485;-57
2023/06/25 04:56:47;;;;;;;3.55;2.90;;;21.60;92.10;;;;;;4118189;28;20481;-57
2023/06/25 04:58:49;;;;;;;3.97;3.25;;;21.70;91.90;;;;;;4117699;28;20057;-58
2023/06/25 05:00:51;;;;;;;4.30;3.30;;;21.80;91.90;;;;;;4116830;28;20133;-58
2023/06/25 05:02:53;;;;;;;5.07;3.60;;;21.70;91.80;;;;;;4117095;28;20050;-57
2023/06/25 05:04:55;;;;;;;6.90;3.75;;;21.80;91.90;;;;;;4118006;28;20552;-57
2023/06/25 05:06:57;;;;;;;4.80;3.22;;;21.80;91.90;;;;;;4118078;28;20130;-58
2023/06/25 05:08:59;;;;;;;4.10;3.00;;;21.80;91.90;;;;;;4117725;28;20094;-58
2023/06/25 05:11:02;;;;;;;4.65;3.35;;;21.80;92.10;;;;;;4117959;28;20058;-57
2023/06/25 05:13:10;;;;;;;5.57;3.42;;;21.70;92.40;;;;;;4117083;28;20588;-57
2023/06/25 05:15:12;;;;;;;3.95;3.40;;;21.70;92.50;;;;;;4117696;28;20049;-57
2023/06/25 05:17:14;;;;;;;5.38;3.30;;;21.70;92.80;;;;;;4117600;28;20493;-57
2023/06/25 05:19:16;;;;;;;4.13;2.90;;;21.70;93.20;;;;;;4117724;28;20235;-57
2023/06/25 05:21:18;;;;;;;10.20;3.13;;;21.70;93.30;;;;;;4117820;28;20121;-57
2023/06/25 05:23:20;;;;;;;5.25;3.38;;;21.70;93.30;;;;;;4116663;28;20047;-55
2023/06/25 05:25:22;;;;;;;7.10;3.33;;;21.80;92.60;;;;;;4117766;28;20074;-58
2023/06/25 05:27:25;;;;;;;7.60;3.30;;;21.90;92.30;;;;;;4117808;28;20050;-57
2023/06/25 05:29:28;;;;;;;3.42;2.78;;;21.80;93.20;;;;;;4117774;28;20424;-60
2023/06/25 05:31:30;;;;;;;5.25;3.00;;;21.80;93.20;;;;;;4117768;28;20204;-59
2023/06/25 05:33:32;;;;;;;7.05;3.50;;;21.80;92.60;;;;;;4116480;28;20054;-60
2023/06/25 05:35:34;;;;;;;5.30;3.75;;;21.80;92.50;;;;;;4116031;28;20046;-60
2023/06/25 05:37:37;;;;;;;4.78;3.50;;;21.90;92.50;;;;;;4117478;28;20054;-60
2023/06/25 05:39:39;;;;;;;6.13;3.53;;;22.00;92.20;;;;;;4117330;28;20050;-59
2023/06/25 05:41:41;;;;;;;4.03;3.40;;;22.00;92.20;;;;;;4117293;28;20122;-60
2023/06/25 05:43:43;;;;;;;4.47;3.90;;;22.10;92.00;;;;;;4116504;28;20051;-59
2023/06/25 05:45:47;;;;;;;6.10;3.75;;;22.10;91.90;;;;;;4117183;28;20138;-59
2023/06/25 05:47:49;;;;;;;5.45;3.65;;;22.20;91.80;;;;;;4117167;28;20075;-60
2023/06/25 05:49:51;;;;;;;7.68;3.65;;;22.10;91.70;;;;;;4117062;28;20424;-57
2023/06/25 05:51:53;;;;;;;6.32;3.45;;;22.10;91.80;;;;;;4117279;28;20086;-56
2023/06/25 05:53:55;;;;;;;4.10;3.67;;;22.20;91.70;;;;;;4115979;28;20042;-56
2023/06/25 05:55:57;;;;;;;5.28;3.47;;;22.20;91.70;;;;;;4117123;28;20054;-56
2023/06/25 05:58:00;;;;;;;5.75;3.38;;;22.30;91.90;;;;;;4117253;28;20468;-57
2023/06/25 06:00:02;;;;;;;6.05;3.42;;;22.20;92.80;;;;;;4116925;28;20058;-57
2023/06/25 06:02:08;;;;;;;6.47;3.80;;;22.20;92.20;;;;;;4117214;28;20050;-55
2023/06/25 06:04:10;;;;;;;5.82;3.60;;;22.30;92.00;;;;;;4115933;28;20054;-59
2023/06/25 06:06:13;;;;;;;4.28;3.83;;;22.30;92.10;;;;;;4117129;28;20485;-57
2023/06/25 06:08:15;;;;;;;3.95;3.22;;;22.30;92.40;;;;;;4116559;28;20055;-57
2023/06/25 06:10:18;;;;;;;8.45;3.83;;;22.40;92.50;;;;;;4117052;28;20047;-55
2023/06/25 06:12:20;;;;;;;6.78;3.83;;;22.40;92.90;;;;;;4116890;28;20082;-56
2023/06/25 06:14:22;;;;;;;5.68;4.03;;;22.40;92.50;;;;;;4114571;28;20081;-58
2023/06/25 06:16:25;;;;;;;7.32;4.43;;;22.40;92.30;;;;;;4116702;28;20047;-56
2023/06/25 06:18:28;;;;;;;6.75;4.03;;;22.50;92.00;;;;;;4116610;28;20137;-57
2023/06/25 06:20:30;;;;;;;5.07;3.58;;;22.50;92.20;;;;;;4116719;28;20070;-57
2023/06/25 06:22:32;;;;;;;5.05;3.70;;;22.60;92.50;;;;;;4116212;28;20142;-58
2023/06/25 06:24:35;;;;;;;4.00;3.42;;;22.50;92.90;;;;;;4115751;28;20054;-57
2023/06/25 06:26:37;;;;;;;7.78;3.53;;;22.60;92.20;;;;;;4116600;28;20050;-60
2023/06/25 06:28:39;;;;;;;7.68;4.30;;;22.70;92.70;;;;;;4116756;28;20053;-59
2023/06/25 06:30:41;;;;;;;8.60;4.82;;;22.70;92.10;;;;;;4116436;28;20059;-60
2023/06/25 06:32:43;;;;;;;10.20;4.38;;;22.70;91.80;;;;;;4116575;28;20066;-60
2023/06/25 06:34:46;;;;;;;6.25;3.50;;;22.80;92.10;;;;;;4115668;28;20078;-60
2023/06/25 06:36:48;;;;;;;8.00;4.50;;;22.80;92.40;;;;;;4116228;28;20055;-59
2023/06/25 06:38:51;;;;;;;5.05;3.65;;;22.90;92.00;;;;;;4116556;28;20058;-59
2023/06/25 06:40:53;;;;;;;6.97;4.20;;;22.90;92.40;;;;;;4116462;28;20078;-59
2023/06/25 06:42:55;;;;;;;5.85;4.00;;;23.00;92.10;;;;;;4116766;28;20053;-58
2023/06/25 06:44:58;;;;;;;8.73;4.22;;;23.20;92.10;;;;;;4115403;28;20189;-59
2023/06/25 06:47:00;;;;;;;4.13;3.50;;;23.10;92.50;;;;;;4116327;28;20078;-59
2023/06/25 06:49:02;;;;;;;9.52;4.30;;;23.20;92.40;;;;;;4116280;28;20047;-58
2023/06/25 06:51:05;;;;;;;7.32;4.10;;;23.30;91.60;;;;;;4116052;28;20133;-55
2023/06/25 06:53:07;;;;;;;6.57;4.05;;;23.40;91.80;;;;;;4115686;28;20102;-55
2023/06/25 06:55:10;;;;;;;6.88;3.78;;;23.50;91.70;;;;;;4115903;28;20047;-58
2023/06/25 06:57:12;;;;;;;5.68;4.20;;;23.60;92.10;;;;;;4116239;28;20051;-57
2023/06/25 06:59:14;;;;;;;7.80;3.90;;;23.70;91.00;;;;;;4115893;28;20085;-58
2023/06/25 07:01:17;;;;;;;6.70;4.10;;;23.90;91.30;;;;;;4114540;28;20077;-60
2023/06/25 07:03:19;;;;;;;9.25;4.60;;;24.00;90.30;;;;;;4115384;28;20476;-60
2023/06/25 07:05:21;;;;;;;5.25;4.10;;;24.10;89.50;;;;;;4115652;28;20082;-60
2023/06/25 07:07:24;;;;;;;5.80;3.72;;;24.30;89.10;;;;;;4115896;28;20057;-60
2023/06/25 07:09:27;;;;;;;6.90;3.92;;;24.50;90.00;;;;;;4116114;28;20043;-60
2023/06/25 07:11:29;;;;;;;5.75;4.03;;;24.70;88.30;;;;;;4116364;28;20047;-58
2023/06/25 07:13:32;;;;;;;6.93;3.97;;;24.80;87.40;;;;;;4115886;28;20084;-58
2023/06/25 07:15:35;;;;;;;5.03;3.75;;;24.90;84.60;;;;;;4116881;28;20415;-58
2023/06/25 07:17:38;;;;;;;5.47;4.13;;;25.10;85.10;;;;;;4116260;28;20408;-60
2023/06/25 07:19:40;;;;;;;6.97;3.78;;;25.30;84.60;;;;;;4115543;28;20117;-57
2023/06/25 07:21:42;;;;;;;4.63;3.75;;;25.40;84.00;;;;;;4116111;28;20061;-57
2023/06/25 07:23:45;;;;;;;5.97;3.80;;;25.60;83.80;;;;;;4115001;28;20053;-57
2023/06/25 07:25:47;;;;;;;9.50;4.30;;;25.60;83.20;;;;;;4115893;28;20077;-57
2023/06/25 07:27:49;;;;;;;7.18;4.43;;;25.80;84.30;;;;;;4115797;28;20129;-56
2023/06/25 07:29:52;;;;;;;4.53;3.78;;;25.90;83.80;;;;;;4115707;28;20054;-55
2023/06/25 07:31:54;;;;;;;7.45;3.90;;;25.90;83.00;;;;;;4115621;28;20093;-56
2023/06/25 07:33:56;;;;;;;6.43;3.95;;;26.10;82.80;;;;;;4114195;28;20058;-55
2023/06/25 07:35:58;;;;;;;6.38;4.22;;;26.10;81.10;;;;;;4115690;28;20074;-56
2023/06/25 07:38:01;;;;;;;10.90;4.15;;;26.20;81.20;;;;;;4115525;28;20089;-57
2023/06/25 07:40:06;;;;;;;5.32;3.85;;;26.30;82.70;;;;;;4115624;28;20058;-57
2023/06/25 07:42:08;;;;;;;;;;;26.50;82.00;;;;;;4116141;28;20477;-55
2023/06/25 07:44:10;;;;;;;5.47;4.07;;;26.60;83.80;;;;;;4114308;28;20000;-57
2023/06/25 07:46:32;;;;;;;4.63;3.83;;;26.70;81.70;;;;;;4114928;28;20072;-57
2023/06/25 07:48:35;;;;;;;6.55;3.90;;;26.80;82.00;;;;;;4115030;28;20477;-60
2023/06/25 07:50:37;;;;;;;4.30;3.90;;;26.80;81.90;;;;;;4115511;28;20047;-59
2023/06/25 07:52:39;;;;;;;5.60;4.20;;;26.90;81.80;;;;;;4115474;28;20489;-58
2023/06/25 07:54:41;;;;;;;5.00;3.80;;;27.00;80.00;;;;;;4114441;28;20070;-60
2023/06/25 07:56:45;;;;;;;6.13;3.80;;;27.00;79.90;;;;;;4115280;28;20070;-60
2023/06/25 07:58:47;;;;;;;6.78;3.80;;;27.20;80.10;;;;;;4115168;28;20428;-59
2023/06/25 08:00:49;;;;;;;7.47;3.90;;;27.20;81.30;;;;;;4115258;28;20046;-59
2023/06/25 08:02:51;;;;;;;6.10;4.18;;;27.30;79.20;;;;;;4115057;28;20059;-59
2023/06/25 08:04:53;;;;;;;5.15;4.00;;;27.20;79.20;;;;;;4113993;28;20101;-59
2023/06/25 08:06:55;;;;;;;6.53;4.03;;;27.40;80.00;;;;;;4115241;28;20138;-59
2023/06/25 08:08:58;;;;;;;5.03;4.13;;;27.50;78.20;;;;;;4113769;28;20526;-59
2023/06/25 08:11:00;;;;;;;4.88;4.20;;;27.60;79.20;;;;;;4115149;28;20576;-59
2023/06/25 08:13:03;;;;;;;7.05;3.92;;;27.60;77.00;;;;;;4117604;28;20081;-59
2023/06/25 08:15:06;;;;;;;5.72;4.20;;;27.60;77.10;;;;;;4117438;28;20155;-59
2023/06/25 08:17:08;;;;;;;5.85;3.78;;;27.60;76.80;;;;;;4118324;28;20129;-57
2023/06/25 08:19:10;;;;;;;4.13;3.70;;;27.60;76.80;;;;;;4118012;28;20400;-59
2023/06/25 08:21:12;;;;;;;5.75;4.05;;;27.70;78.20;;;;;;4118537;28;20046;-59
2023/06/25 08:23:14;;;;;;;8.20;3.88;;;27.80;78.00;;;;;;4118169;28;20051;-57
2023/06/25 08:25:21;;;;;;;5.22;3.95;;;27.90;77.60;;;;;;4117033;28;20126;-60
2023/06/25 08:27:23;;;;;;;6.68;3.83;;;27.90;77.40;;;;;;4117992;28;20046;-59
2023/06/25 08:29:26;;;;;;;7.97;4.25;;;28.00;77.60;;;;;;4118171;28;20039;-59
2023/06/25 08:31:28;;;;;;;4.82;3.90;;;28.10;76.60;;;;;;4118308;28;20050;-59
2023/06/25 08:33:30;;;;;;;5.22;4.00;;;28.10;76.50;;;;;;4117215;28;20043;-60
2023/06/25 08:35:32;;;;;;;7.18;4.07;;;28.20;76.60;;;;;;4118043;28;20130;-59
2023/06/25 08:37:34;;;;;;;8.38;4.32;;;28.20;76.70;;;;;;4117971;28;20097;-59
2023/06/25 08:39:36;;;;;;;5.68;4.45;;;28.30;76.40;;;;;;4118248;28;20058;-59
2023/06/25 08:41:38;;;;;;;4.32;3.53;;;28.40;76.60;;;;;;4118080;28;20130;-57
2023/06/25 08:43:41;;;;;;;6.75;4.10;;;28.50;76.30;;;;;;4117242;28;20078;-58
2023/06/25 08:45:45;;;;;;;4.30;3.88;;;28.50;75.00;;;;;;4117624;28;20536;-58
2023/06/25 08:47:53;;;;;;;4.82;3.95;;;28.50;74.80;;;;;;4117554;28;20081;-57
2023/06/25 08:49:57;;;;;;;5.07;4.15;;;28.50;74.90;;;;;;4117953;28;20492;-57
2023/06/25 08:52:01;;;;;;;6.90;4.25;;;28.50;75.30;;;;;;4118160;28;20138;-56
2023/06/25 08:54:05;;;;;;;9.37;5.30;;;28.60;75.00;;;;;;4116846;28;20055;-55
2023/06/25 08:56:08;;;;;;;6.03;4.63;;;28.60;74.70;;;;;;4117744;28;20139;-56
2023/06/25 08:58:10;;;;;;;5.18;4.40;;;28.60;74.60;;;;;;4116715;28;20051;-55
2023/06/25 09:00:13;;;;;;;6.75;3.85;;;28.70;73.70;;;;;;4117478;28;20055;-56
2023/06/25 09:02:16;;;;;;;8.95;4.55;;;28.70;75.60;;;;;;4117707;28;20126;-56
2023/06/25 09:04:18;;;;;;;5.45;4.40;;;28.80;75.30;;;;;;4116852;28;20054;-56
2023/06/25 09:06:26;;;;;;;5.32;4.18;;;28.90;75.30;;;;;;4117932;28;20134;-55
2023/06/25 09:08:28;;;;;;;5.18;3.80;;;29.00;74.60;;;;;;4117652;28;20054;-56
2023/06/25 09:10:31;;;;;;;5.88;3.80;;;29.00;74.40;;;;;;4117891;28;20404;-56
2023/06/25 09:12:33;;;;;;;5.18;3.63;;;29.10;74.00;;;;;;4117662;28;20078;-56
2023/06/25 09:14:36;;;;;;;4.13;3.72;;;29.20;73.40;;;;;;4116692;28;20051;-56
2023/06/25 09:16:49;;;;;;;3.92;3.63;;;29.20;72.30;;;;;;4117453;28;20050;-57
2023/06/25 09:18:52;;;;;;;7.70;4.65;;;29.20;73.30;;;;;;4117303;28;20042;-57
2023/06/25 09:20:55;;;;;;;6.03;4.25;;;29.20;72.10;;;;;;4117714;28;20494;-57
2023/06/25 09:22:58;;;;;;;5.10;3.80;;;29.20;72.70;;;;;;4117122;28;20125;-56
2023/06/25 09:25:01;;;;;;;5.88;3.65;;;29.30;71.60;;;;;;4116593;28;20078;-56
2023/06/25 09:27:03;;;;;;;8.13;3.72;;;29.40;72.10;;;;;;4117436;28;20524;-55
2023/06/25 09:29:05;;;;;;;6.75;4.15;;;29.40;72.40;;;;;;4117240;28;20046;-57
2023/06/25 09:31:07;;;;;;;5.70;4.45;;;29.50;71.90;;;;;;4117067;28;20054;-59
2023/06/25 09:33:11;;;;;;;4.32;3.88;;;29.60;71.30;;;;;;4116249;28;20051;-58
2023/06/25 09:35:19;;;;;;;5.70;3.85;;;29.70;71.10;;;;;;4116151;28;20051;-59
2023/06/25 09:37:21;;;;;;;3.78;3.47;;;29.80;70.20;;;;;;4117129;28;20061;-59
2023/06/25 09:39:23;;;;;;;3.95;3.40;;;29.80;69.30;;;;;;4117293;28;20565;-59
2023/06/25 09:41:27;;;;;;;5.38;3.63;;;29.90;71.20;;;;;;4117237;28;20484;-58
2023/06/25 09:43:30;;;;;;;5.10;3.50;;;29.90;68.70;;;;;;4117118;28;20054;-57
2023/06/25 09:45:34;;;;;;;4.63;3.78;;;30.00;70.00;;;;;;4115411;28;20073;-57
2023/06/25 09:47:41;;;;;;;8.65;3.72;;;30.10;69.20;;;;;;4116920;28;20389;-56
2023/06/25 09:49:43;;;;;;;6.38;3.67;;;30.20;69.00;;;;;;4116985;28;20073;-57
2023/06/25 09:51:53;;;;;;;5.90;3.75;;;30.20;69.70;;;;;;4117201;28;20485;-59
2023/06/25 09:53:56;;;;;;;8.00;4.65;;;30.30;68.80;;;;;;4116229;28;20393;-59
2023/06/25 09:56:00;;;;;;;4.57;4.10;;;30.40;68.50;;;;;;4117007;28;20131;-59
2023/06/25 09:58:04;;;;;;;5.75;4.05;;;30.40;69.20;;;;;;4116984;28;20057;-58
2023/06/25 10:00:09;;;;;;;5.50;3.65;;;30.60;69.80;;;;;;4116711;28;20138;-57
2023/06/25 10:02:13;;;;;;;6.43;3.88;;;30.70;69.00;;;;;;4117295;28;20046;-56
2023/06/25 10:04:16;;;;;;;4.38;3.78;;;30.70;67.90;;;;;;4116152;28;20053;-56
2023/06/25 10:06:18;;;;;;;6.82;3.70;;;30.80;67.40;;;;;;4116617;28;20050;-56
2023/06/25 10:08:22;;;;;;;3.90;3.50;;;30.80;67.20;;;;;;4116612;28;20105;-56
2023/06/25 10:10:27;;;;;;;5.50;3.67;;;30.90;67.40;;;;;;4117067;28;20051;-58
2023/06/25 10:12:32;;;;;;;6.88;3.70;;;31.00;66.40;;;;;;4116715;28;20061;-58
2023/06/25 10:14:39;;;;;;;4.97;4.07;;;31.00;66.70;;;;;;4115469;28;20438;-59
2023/06/25 10:16:50;;;;;;;4.25;3.85;;;31.00;67.00;;;;;;4116726;28;20070;-58
2023/06/25 10:18:54;;;;;;;4.75;3.80;;;31.10;67.90;;;;;;4116722;28;20057;-58
2023/06/25 10:20:58;;;;;;;7.63;3.65;;;31.10;66.70;;;;;;4115577;28;20051;-57
2023/06/25 10:23:08;;;;;;;3.90;3.50;;;31.10;66.50;;;;;;4116509;28;20057;-57
2023/06/25 10:25:26;;;;;;;4.93;3.55;;;31.10;66.90;;;;;;4115488;28;20069;-56
2023/06/25 10:27:29;;;;;;;4.80;3.53;;;31.10;67.00;;;;;;4116588;28;20054;-55
2023/06/25 10:29:39;;;;;;;4.28;3.70;;;31.10;65.60;;;;;;4116264;28;20051;-56
2023/06/25 10:31:44;;;;;;;4.72;3.65;;;31.00;65.40;;;;;;4116322;28;20078;-59
2023/06/25 10:33:47;;;;;;;4.35;3.30;;;31.10;65.80;;;;;;4116567;28;20042;-60
2023/06/25 10:35:54;;;;;;;4.80;3.35;;;31.10;66.30;;;;;;4115005;28;20078;-60
2023/06/25 10:37:56;;;;;;;5.53;3.40;;;31.20;65.90;;;;;;4116400;28;20050;-60
2023/06/25 10:40:04;;;;;;;4.45;3.38;;;31.20;65.80;;;;;;4116192;28;20485;-58
2023/06/25 10:42:08;;;;;;;5.30;3.45;;;31.20;65.30;;;;;;4116272;28;20129;-59